Tiempo atmosférico en la estación meteorológica de Loja, Granada (580 m.)



Fecha
DESCASC
Temp. máxima en grados centígrados (hora)
DESCASC
Temp. mínima en grados centígrados (hora)
DESCASC
Temp. media en grados centígrados
DESCASC
Racha de viento máxima en m/sg (hora)
DESCASC
Velocidad máxima media en intervalos de 10 minutos(hora)
DESCASC
Precipitaciones diarias en mm
DESCASC
Precipitaciones de 00:00 a 06:00 en mm
DESCASC
Precipitaciones de 06:00 a 12:00 en mm
DESCASC
Precipitaciones de 12:00 a 18:00 en mm
DESCASC
Precipitaciones de 18:00 a 24:00 en mm
DESCASC
22-01-2020 10.3 (14:30) 4.1 (09:00) 7.2 9.72 (18:00) 3.61 (18:00) 0.8 0 0.8 0 0
21-01-2020 10.3 (14:10) 4.4 (07:50) 7.4 8.06 (03:20) 3.61 (03:40) 0.8 0 0 0 0.8
20-01-2020 8.4 (16:30) 1.4 (07:40) 4.9 10.83 (15:10) 5 (13:20) 1.1 0.2 0.9 0 0
19-01-2020 13.6 (01:20) 4.9 (00:00) 9.3 11.94 (01:30) 5.83 (01:30) 2.4 1.8 0.1 0.5 0
18-01-2020 14.4 (21:50) 5.2 (00:00) 9.8 15 (23:30) 6.11 (23:30) 3.2 0 1.2 0.5 1.5
17-01-2020 -- (--) -- (--) -- -- (--) -- (--) -- -- -- 0 0
16-01-2020 16.9 (15:50) 1.2 (00:00) 9 8.33 (03:20) 3.61 (18:20) 0 0 0 0 0
15-01-2020 15.2 (15:30) 0.7 (00:00) 7.9 7.5 (07:20) 3.33 (07:20) 0 0 0 0 0
14-01-2020 11.6 (15:20) -0.7 (-00:0) 5.5 7.5 (08:00) 3.06 (08:30) 0 0 0 0 0
13-01-2020 14.2 (15:40) 0.4 (00:00) 7.3 6.94 (05:30) 3.61 (03:50) 0 0 0 0 0
12-01-2020 14.5 (15:20) 0 (00:00) 7.3 6.94 (11:30) 2.78 (09:10) 0 0 0 0 0
11-01-2020 14.1 (15:50) 0.5 (00:00) 7.3 5 (10:10) 2.22 (13:10) 0 0 0 0 0
10-01-2020 14.9 (15:00) 3.3 (00:00) 9.1 7.78 (17:50) 3.61 (18:00) 0 0 0 0 0
09-01-2020 14.5 (15:50) 2.4 (00:00) 8.5 7.5 (23:30) 3.33 (23:10) 0 0 0 0 0
08-01-2020 16.7 (15:10) 1 (00:00) 8.9 7.22 (12:30) 2.78 (12:30) 0.1 0.1 0 0 0
07-01-2020 16 (15:10) 2.1 (00:00) 9 8.33 (09:10) 3.89 (09:00) 0.1 0 0.1 0 0
06-01-2020 15.3 (14:50) 1.7 (00:00) 8.5 7.22 (23:20) 2.78 (23:20) 0 0 0 0 0
05-01-2020 14.9 (15:20) 4 (00:00) 9.4 5.83 (09:40) 3.33 (23:50) 0 0 0 0 0
04-01-2020 14.2 (15:40) 5.8 (00:00) 10 5.83 (03:50) 3.06 (07:20) 0 0 0 0 0
03-01-2020 13.5 (15:00) 3.4 (00:00) 8.5 7.5 (17:10) 4.44 (17:10) 0 0 0 0 0
02-01-2020 16.4 (15:00) 2 (00:00) 9.2 6.39 (02:50) 2.78 (03:00) 0 0 0 0 0
01-01-2020 17 (15:10) 3.3 (00:00) 10.1 7.78 (05:10) 3.61 (05:10) 0 0 0 0 0
31-12-2019 14.6 (15:20) 2.7 (00:00) 8.7 8.89 (06:30) 3.89 (07:00) 0 0 0 0 0
30-12-2019 15.5 (15:00) 2.1 (00:00) 8.8 7.22 (03:00) 3.61 (04:50) 0 0 0 0 0
29-12-2019 15.8 (15:10) 3.8 (00:00) 9.8 8.61 (04:50) 3.89 (08:30) 0 0 0 0 0
28-12-2019 18.9 (15:10) 6.1 (00:00) 12.5 9.44 (07:30) 4.44 (07:20) 0 0 0 0 0
27-12-2019 18.7 (14:20) 7.8 (00:00) 13.3 8.61 (09:20) 4.44 (10:00) 0 0 0 0 0
26-12-2019 18.4 (15:50) 5.4 (00:00) 11.9 8.61 (09:40) 3.61 (22:40) 0 0 0 0 0
25-12-2019 17 (15:40) 5.5 (00:00) 11.3 8.61 (10:10) 4.72 (10:10) 0 0 0 0 0

Gráficas

Temp. máximas Temp. mínimas Temp. medias Precipitaciones Rachas de viento máximas Velocidades máximas media en intervalos de 10 minutos

Datos horarios

Fecha y hora oficial Temperatura (ºC) Velocidad del viento (km/h) Dirección del viento Racha (km/h) Dirección de racha Precipitación (mm) Presión (hPa) Tendencia (hPa) Humedad (%)
2020-01-23 23:00:00 10 4 Sudeste 15 Sudeste 0 948.7 1 51
2020-01-23 22:00:00 9.3 5 Este 15 Sudeste 0 948.2 0.6 54
2020-01-23 21:00:00 9.4 3 Sudeste 18 Sudeste 0 948.2 0.8 58
2020-01-23 20:00:00 7.7 4 Sudoeste 6 Sur 0 947.7 0.4 76
2020-01-23 19:00:00 7.6 2 Sudoeste 6 Sudoeste 0 947.6 0.4 76
2020-01-23 18:00:00 8.8 3 Sudoeste 12 Oeste 0 947.4 0.3 73
2020-01-23 17:00:00 8.7 6 Noroeste 14 Noroeste 0 947.3 -0.1 75
2020-01-23 16:00:00 8.8 5 Noroeste 26 Noroeste 0 947.2 -0.8 75
2020-01-23 15:00:00 9 9 Noroeste 24 Noroeste 0 947.1 -1.6 62
2020-01-23 14:00:00 8.9 5 Noroeste 12 Noroeste 0 947.4 -0.7 66
2020-01-23 13:00:00 8.4 0 Calma 13 Noroeste 0 948 0.6 78
2020-01-23 12:00:00 7.5 3 Noroeste 12 Noroeste 0 948.7 4.7 81
2020-01-23 11:00:00 6.7 0 Calma 14 Sudeste 0 948.1 1.9 81
2020-01-23 10:00:00 7.9 9 Este 21 Sudeste 0.1 947.4 2.9 82
2020-01-23 09:00:00 4.3 9 Este 18 Este 0.6 944 -1.7 84
2020-01-23 08:00:00 6.6 8 Este 17 Sudeste 0 946.2 -0.6 84
2020-01-23 07:00:00 6.1 9 Sudeste 19 Sudeste 2.5 944.5 -2.4 83
2020-01-23 06:00:00 5.4 0 Calma 17 Este 1.1 945.7 -1.4 83
2020-01-23 05:00:00 6.4 7 Este 22 Sudeste 0 946.8 -0.4 81
2020-01-23 04:00:00 6.8 9 Este 21 Este 0 946.9 -0.3 78
2020-01-23 03:00:00 7 10 Sudeste 18 Este 0 947.1 0.1 72
2020-01-23 02:00:00 7.2 0 Calma 16 Este 0 947.2 0 72
2020-01-23 01:00:00 7.2 8 Sudeste 19 Norte 0 947.2 0.2 69
2020-01-23 00:00:00 7.2 6 Sudeste 17 Sudeste 0 947 0.2 70
2020-01-22 23:00:00 6.7 4 Sudeste 19 Norte 0 947.2 0.7 75
2020-01-22 22:00:00 6.9 11 Sudeste 19 Sudeste 0 947 0.8 74
2020-01-22 21:00:00 7.2 6 Sudeste 15 Sudeste 0 946.8 1.3 71
2020-01-22 20:00:00 6.9 8 Sudeste 16 Sudeste 0 946.5 1 72
2020-01-22 19:00:00 7.5 10 Sudeste 27 Este 0 946.2 1 70
2020-01-22 18:00:00 8 13 Sudeste 35 Este 0 945.5 0.5 62
2020-01-22 17:00:00 8.9 8 Sudeste 30 Sudeste 0 945.5 -0.2 54
2020-01-22 16:00:00 9.7 10 Este 34 Este 0 945.2 -1.2 51
2020-01-22 15:00:00 9.6 9 Sudeste 19 Sudeste 0 945 -1.6 60
2020-01-22 14:00:00 8.5 4 Este 13 Este 0 945.7 -0.7 65
2020-01-22 13:00:00 7.2 6 Este 16 Este 0 946.4 1.2 74
2020-01-22 12:00:00 6.4 5 Este 12 Sudeste 0 946.6 1.8 80
2020-01-22 11:00:00 6.1 6 Este 17 Este 0 946.4 1.7 80
2020-01-22 10:00:00 7 9 Este 18 Este 0.1 945.2 1 83
2020-01-22 09:00:00 4.7 5 Este 18 Sudeste 0.2 944.8 0.4 83
2020-01-22 08:00:00 5.8 3 Este 13 Este 0.1 944.7 0.1 84
2020-01-22 07:00:00 5.3 4 Sudeste 15 Este 0.4 944.2 -0.7 84
2020-01-22 06:00:00 5.7 6 Sudeste 19 Sudeste 0 944.4 -0.4 81
2020-01-22 05:00:00 6.1 6 Sudeste 17 Sudeste 0 944.6 -0.1 78
2020-01-22 04:00:00 5.8 4 Este 14 Este 0 944.9 0.4 83
2020-01-22 03:00:00 6.1 9 Sudeste 18 Sudeste 0 944.8 0.7 82
2020-01-22 02:00:00 6.2 5 Sudeste 14 Este 0 944.7 1.2 84
2020-01-22 01:00:00 6.3 5 Este 17 Este 0 944.5 1.5 84
2020-01-22 00:00:00 7 5 Este 18 Norte 0 944.1 0.4 84
2020-01-21 23:00:00 7 6 Este 20 Sudeste 0.1 943.5 0 84
2020-01-21 22:00:00 6.5 8 Sudeste 15 Sudeste 0.5 943 0.4 84
2020-01-21 21:00:00 8.6 6 Sudeste 16 Sudeste 0.2 943.7 1.6 80
2020-01-21 20:00:00 8.1 6 Sudeste 15 Sudeste 0 943.5 2.1 68
2020-01-21 19:00:00 8.7 0 Calma 7 Sur 0 942.6 1.6 58
2020-01-21 18:00:00 9.2 3 Sudeste 9 Este 0 942.1 0.5 51
2020-01-21 17:00:00 9.4 0 Calma 8 Sudeste 0 941.4 -0.6 51
2020-01-21 16:00:00 9.4 0 Calma 16 Sudeste 0 941 -1.8 50
2020-01-21 15:00:00 9.3 9 Este 17 Sudeste 0 941.6 -1.1 49
2020-01-21 14:00:00 9.7 7 Sudeste 20 Sudeste 0 942 -1.5 48
2020-01-21 13:00:00 9.1 8 Sudeste 19 Sudeste 0 942.8 -0.3 50
2020-01-21 12:00:00 7.8 4 Este 11 Este 0 942.7 -0.4 58
2020-01-21 11:00:00 6.8 3 Nordeste 12 Sur 0 943.5 0.6 62
2020-01-21 10:00:00 5.5 0 Calma 6 Noroeste 0 943.1 0.3 72
2020-01-21 09:00:00 5 2 Sudoeste 5 Norte 0 943.1 0.2 76
2020-01-21 08:00:00 4.8 0 Calma 14 Este 0 942.9 -0.9 72
2020-01-21 07:00:00 5.9 3 Nordeste 17 Este 0 942.8 -1.1 65
2020-01-21 06:00:00 5.7 4 Este 25 Sudoeste 0 942.9 -1.4 62
2020-01-21 05:00:00 5.8 6 Este 28 Sudeste 0 943.8 -0.9 62
2020-01-21 04:00:00 7.3 11 Sudeste 29 Sudeste 0 943.9 -1.2 54
2020-01-21 03:00:00 6.3 5 Sudeste 17 Sur 0 944.3 -1 57
2020-01-21 02:00:00 7.1 4 Sudeste 22 Sudoeste 0 944.7 -0.4 54
2020-01-21 01:00:00 7.4 11 Sur 24 Sur 0 945.1 0.1 53
2020-01-21 00:00:00 7.4 12 Sur 28 Sur 0 945.3 0.3 53
2020-01-20 23:00:00 7.4 13 Sur 35 Sur 0 945.1 0.3 51
2020-01-20 22:00:00 7.9 13 Sur 23 Sur 0 945 0.5 50
2020-01-20 21:00:00 7.5 9 Sudeste 22 Sudeste 0 945 1.1 51
2020-01-20 20:00:00 7.5 11 Sur 22 Sudeste 0 944.8 1.4 50
2020-01-20 19:00:00 7.9 9 Sudeste 21 Sudeste 0 944.5 1.2 49
2020-01-20 18:00:00 8 12 Sudeste 26 Sudeste 0 943.9 0.6 48
2020-01-20 17:00:00 7.7 9 Sudeste 32 Norte 0 943.4 -0.5 49
2020-01-20 16:00:00 7.9 13 Sudeste 39 Sudeste 0 943.3 -1.3 47
2020-01-20 15:00:00 7.7 16 Este 38 Este 0 943.3 -1.7 47
2020-01-20 14:00:00 7.3 17 Sudeste 36 Sudeste 0 943.9 -1.1 49
2020-01-20 13:00:00 6.6 14 Sudeste 35 Sudeste 0 944.6 -0.3 49
2020-01-20 12:00:00 6.3 16 Sur 32 Sur 0 945 0.5 49
2020-01-20 11:00:00 5.3 12 Sur 29 Sudeste 0 945 0.6 53
2020-01-20 10:00:00 4.8 9 Sur 27 Sudeste 0 944.9 -0.1 55
2020-01-20 09:00:00 4.1 10 Sudeste 27 Sudeste 0.1 944.5 -1.4 66
2020-01-20 08:00:00 2.6 4 Sudeste 17 Sudeste 0.4 944.4 -1.8 84
2020-01-20 07:00:00 4.6 5 Sudeste 18 Este 0.4 945 -1.5 80
2020-01-20 06:00:00 3.7 8 Este 22 Este 0.2 945.9 -0.8 71
2020-01-20 05:00:00 5 10 Sudeste 23 Sudeste 0 946.2 -1 64
2020-01-20 04:00:00 5.7 7 Sudeste 18 Sudeste 0 946.5 -1.1 55
2020-01-20 03:00:00 6 8 Sudeste 27 Sudeste 0 946.7 -0.4 54
2020-01-20 02:00:00 6 13 Sudeste 29 Sudeste 0 947.2 0.4 54
2020-01-20 01:00:00 6.5 14 Sudeste 31 Sudeste 0 947.6 0.5 53
2020-01-20 00:00:00 6.7 12 Sudeste 30 Sudeste 0 947.1 0.4 54
2020-01-19 23:00:00 6.7 12 Sudeste 30 Sudeste 0 946.8 0 58
2020-01-19 22:00:00 6.3 7 Este 17 Sudeste 0 947.1 0.3 62
2020-01-19 21:00:00 6.6 5 Este 23 Noroeste 0 946.7 -0.2 59
2020-01-19 20:00:00 7.1 0 Calma 16 Noroeste 0 946.8 -0.1 58
2020-01-19 19:00:00 7.6 4 Sudeste 21 Norte 0 946.8 -0.4 58
2020-01-19 18:00:00 7.9 5 Noroeste 37 Nordeste 0.1 946.9 0.6 55
2020-01-19 17:00:00 8.1 5 Nordeste 36 Nordeste 0 946.9 -0.9 57
2020-01-19 16:00:00 8.4 4 Norte 22 Noroeste 0 947.2 -1.6 59
2020-01-19 15:00:00 6.8 8 Noroeste 40 Norte 0.4 946.3 -3.4 74
2020-01-19 14:00:00 9.2 10 Noroeste 21 Noroeste 0 947.8 -1.9 51
2020-01-19 13:00:00 9.3 3 Oeste 18 Noroeste 0 948.8 -0.7 59
2020-01-19 12:00:00 7.9 3 Oeste 17 Noroeste 0 949.7 0.7 72
2020-01-19 11:00:00 7.7 6 Oeste 19 Oeste 0 949.7 0.5 75
2020-01-19 10:00:00 7.6 8 Oeste 24 Oeste 0 949.5 -0.1 79
2020-01-19 09:00:00 9.7 10 Oeste 30 Oeste 0.1 949 -0.5 80
2020-01-19 08:00:00 8 14 Oeste 33 Oeste 0 949.2 -1.1 71
2020-01-19 07:00:00 8.1 11 Oeste 34 Oeste 0 949.6 -1.4 66
2020-01-19 06:00:00 8.5 11 Oeste 36 Oeste 0 949.5 -2 65
2020-01-19 05:00:00 9.1 14 Noroeste 34 Oeste 0 950.3 -1.7 69
2020-01-19 04:00:00 10 9 Oeste 30 Oeste 0 951 -1.7 69
2020-01-19 03:00:00 10.6 9 Oeste 31 Oeste 0 951.5 -1.1 74
2020-01-19 02:00:00 11.8 12 Oeste 43 Noroeste 1.7 952 0.6 81
2020-01-19 01:00:00 12.4 10 Oeste 41 Oeste 0.1 952.7 -0.6 75
2020-01-19 00:00:00 12.7 11 Oeste 54 Oeste 0.1 952.6 -2 78
2020-01-18 23:00:00 13.4 18 Oeste 43 Oeste 0.6 951.4 -3.6 76
2020-01-18 22:00:00 13 11 Oeste 39 Oeste 0.4 953.3 -1.9 77
2020-01-18 21:00:00 14.1 14 Oeste 37 Oeste 0 954.6 -2.2 82
2020-01-18 20:00:00 9.1 0 Calma 8 Sudeste 0.1 955 -2.9 85
2020-01-18 19:00:00 8.4 2 Norte 10 Nordeste 0.3 955.2 -3.2 85
2020-01-18 18:00:00 9.2 3 Nordeste 15 Este 0.2 956.8 -2.2 84
2020-01-18 17:00:00 9.9 0 Calma 12 Norte 0.2 957.9 -2 80
2020-01-18 16:00:00 9.8 4 Este 14 Este 0 958.4 -1.9 76
2020-01-18 15:00:00 9.4 7 Este 19 Sudeste 0 959 -2.3 72
2020-01-18 14:00:00 8.9 11 Este 22 Norte 0 959.9 -2.5 72
2020-01-18 13:00:00 9.5 5 Nordeste 23 Sudeste 0.1 960.3 -1.6 85
2020-01-18 12:00:00 7.6 0 Calma 10 Norte 0.4 961.3 -0.1 86
2020-01-18 11:00:00 10 0 Calma 4 Noroeste 0.8 962.4 1.5 84
2020-01-18 10:00:00 7.2 0 Calma 6 Sudeste 0 961.9 1.2 75
2020-01-18 09:00:00 5.4 0 Calma 23 Este 0 961.4 0.6 78
2020-01-18 08:00:00 6.6 6 Nordeste 26 Este 0 960.9 -0.1 72
2020-01-18 07:00:00 5.9 13 Este 30 Este 0 960.7 -0.5 83
2020-01-18 06:00:00 5.4 0 Calma 6 Sudeste 0 960.8 -0.4 84
2020-01-18 05:00:00 6.1 0 Calma 5 Sur 0 961 -1 84
2020-01-18 04:00:00 5.8 0 Calma 5 Oeste 0 961.2 -0.5 83
2020-01-18 03:00:00 5.9 0 Calma 11 Sudeste 0 961.2 -1 83
2020-01-18 02:00:00 8 6 Este 25 Este 0 962 -0.5 71
2020-01-18 01:00:00 7.5 14 Este 30 Este 0 961.7 -0.8 80
2020-01-18 00:00:00 8.1 14 Este 26 Este 0 962.2 -0.5 76
2020-01-17 23:00:00 8.6 4 Este 10 Este 0 962.5 0.4 76
2020-01-17 22:00:00 10.1 0 Calma 10 Oeste 0 962.5 0.6 57
2020-01-17 21:00:00 9.5 0 Calma 7 Oeste 0 962.7 1.7 69
2020-01-17 20:00:00 11.2 3 Oeste 11 Oeste 0 962.1 1.5 65
2020-01-17 19:00:00 11.5 5 Oeste 13 Oeste 0 961.9 0.8 62
2020-01-17 18:00:00 11.8 4 Sudoeste 7 Oeste 0 961 -0.3 58
2020-01-17 17:00:00 12.2 3 Sudoeste 8 Noroeste 0 960.6 -1.8 58
2020-01-17 16:00:00 13.5 3 Noroeste 10 Oeste 0 961.1 -2.4 56
2020-01-17 15:00:00 13.4 0 Calma 8 Noroeste 0 961.3 -2.2 51
2020-01-17 14:00:00 9.1 3 Noroeste 8 Noroeste 0 962.4 -1.3 68
2020-01-17 13:00:00 8.3 4 Noroeste 15 Noroeste 0 963.5 0.5 59
2020-01-17 12:00:00 7.8 4 Nordeste 10 Sudeste 0 963.5 -- 57
2020-01-17 11:00:00 5.4 0 Calma 6 Noroeste 0 963.7 -- 69
2020-01-17 10:00:00 4 0 Calma -- -- -- 963 -- 69
2020-01-17 09:00:00 -- -- -- -- -- -- -- -- --
2020-01-17 08:00:00 -- -- -- -- -- -- -- -- --
2020-01-17 07:00:00 -- -- -- -- -- -- -- -- --
2020-01-17 06:00:00 -- -- -- -- -- -- -- -- --
2020-01-17 05:00:00 -- -- -- -- -- -- -- -- --
2020-01-17 04:00:00 -- -- -- -- -- -- -- -- --
2020-01-17 03:00:00 -- -- -- -- -- -- -- -- --
2020-01-17 02:00:00 6 2 Este 9 Sudeste 0 960.5 0.5 57
2020-01-17 01:00:00 5 0 Calma 5 Este 0 960.6 0.9 62
2020-01-17 00:00:00 7.6 0 Calma 8 Sudeste 0 960.4 1.1 50
2020-01-16 23:00:00 8.4 0 Calma 5 Sudoeste 0 960 1.4 43
2020-01-16 22:00:00 9.2 0 Calma 7 Noroeste 0 959.7 1.7 40
2020-01-16 21:00:00 10 4 Oeste 17 Sudoeste 0 959.3 1.9 38
2020-01-16 20:00:00 12.9 9 Sudoeste 23 Oeste 0 958.6 1.5 31
2020-01-16 19:00:00 13.4 5 Sudoeste 21 Sudoeste 0 958 0.8 28
2020-01-16 18:00:00 13.7 6 Sudoeste 15 Oeste 0 957.4 0 28
2020-01-16 17:00:00 14.5 7 Sudoeste 18 Oeste 0 957.1 -1 27
2020-01-16 16:00:00 16.5 0 Calma 7 Sudoeste 0 957.2 -1.7 27
2020-01-16 15:00:00 13.9 3 Nordeste 11 Este 0 957.4 -2.2 30
2020-01-16 14:00:00 12.4 4 Nordeste 12 Este 0 958.1 -1.8 33
2020-01-16 13:00:00 9.7 4 Nordeste 15 Este 0 958.9 -0.2 40
2020-01-16 12:00:00 6.8 8 Este 23 Este 0 959.6 0.3 47
2020-01-16 11:00:00 6.2 12 Este 24 Este 0 959.9 1.2 53
2020-01-16 10:00:00 1.4 4 Noroeste 17 Este 0 959.1 0.8 74
2020-01-16 09:00:00 2.1 4 Este 24 Este 0 959.3 0.9 68
2020-01-16 08:00:00 1.4 6 Norte 22 Este 0 958.7 0.2 72
2020-01-16 07:00:00 3.2 5 Nordeste 27 Este 0 958.3 -0.5 65
2020-01-16 06:00:00 3.7 12 Este 24 Este 0 958.4 -0.2 62
2020-01-16 05:00:00 2.4 3 Norte 12 Nordeste 0 958.5 -0.3 69
2020-01-16 04:00:00 4 2 Norte 30 Este 0 958.8 -0.1 59
2020-01-16 03:00:00 5.5 10 Este 24 Sudeste 0 958.6 -0.2 52
2020-01-16 02:00:00 6.2 9 Este 21 Este 0 958.8 0.1 50
2020-01-16 01:00:00 6.9 5 Este 16 Este 0 958.9 0.4 49
2020-01-16 00:00:00 7 4 Nordeste 19 Este 0 958.8 0.3 47
2020-01-15 23:00:00 7.2 3 Este 13 Sudeste 0 958.7 0.5 49
2020-01-15 22:00:00 7.1 0 Calma 9 Este 0 958.5 0.7 47
2020-01-15 21:00:00 9.6 4 Sudeste 9 Este 0 958.5 1.3 40
2020-01-15 20:00:00 10.5 2 Sur 13 Sur 0 958.2 1.2 37
2020-01-15 19:00:00 11.2 8 Sur 12 Sur 0 957.8 0.8 35
2020-01-15 18:00:00 11.6 9 Sur 11 Sur 0 957.2 0.2 36
2020-01-15 17:00:00 11.8 6 Sur 9 Sur 0 957 -0.3 36
2020-01-15 16:00:00 13.4 3 Sudoeste 9 Este 0 957 -0.8 33
2020-01-15 15:00:00 13.5 2 Nordeste 10 Este 0 957 -1.2 37
2020-01-15 14:00:00 11.1 5 Nordeste 11 Norte 0 957.3 -0.7 44
2020-01-15 13:00:00 8.8 4 Nordeste 16 Norte 0 957.8 0.4 52
2020-01-15 12:00:00 5.8 6 Nordeste 22 Este 0 958.2 1.3 62
2020-01-15 11:00:00 3.9 7 Este 21 Sudeste 0 958 1.6 71
2020-01-15 10:00:00 1.8 6 Este 41 Este 0 957.4 1.7 79
2020-01-15 09:00:00 1.6 10 Nordeste 26 Norte 0 956.9 1.6 77
2020-01-15 08:00:00 1.2 7 Nordeste 27 Este 0 956.4 1.2 81
2020-01-15 07:00:00 1.9 11 Este 25 Este 0 955.7 0.3 78
2020-01-15 06:00:00 2.8 10 Nordeste 26 Este 0 955.3 -0.4 78
2020-01-15 05:00:00 2.4 10 Este 26 Sudeste 0 955.2 -0.4 81
2020-01-15 04:00:00 2.2 6 Nordeste 24 Este 0 955.4 -0.4 81
2020-01-15 03:00:00 2.4 5 Nordeste 17 Este 0 955.7 0.3 80
2020-01-15 02:00:00 2.4 0 Calma 4 Sudeste 0 955.6 0.3 83
2020-01-15 01:00:00 2.8 0 Calma 4 Oeste 0 955.8 0.8 81
2020-01-15 00:00:00 3.4 0 Calma 4 Sudeste 0 955.4 0.6 78
2020-01-14 23:00:00 4.5 0 Calma 4 Sudeste 0 955.3 0.9 70
2020-01-14 22:00:00 4.8 0 Calma 4 Sur 0 955 1 63
2020-01-14 21:00:00 6.3 0 Calma 6 Sudoeste 0 954.8 1.2 56
2020-01-14 20:00:00 6.8 2 Sudoeste 9 Oeste 0 954.4 1.1 54
2020-01-14 19:00:00 8.8 6 Oeste 15 Oeste 0 954 1 51
2020-01-14 18:00:00 9.2 4 Oeste 15 Oeste 0 953.6 0.4 51
2020-01-14 17:00:00 9.9 8 Noroeste 23 Oeste 0 953.3 -0.4 47
2020-01-14 16:00:00 10.7 6 Oeste 17 Oeste 0 953 -1.6 46
2020-01-14 15:00:00 10.5 5 Noroeste 15 Norte 0 953.2 -2.2 46
2020-01-14 14:00:00 10.3 4 Oeste 13 Noroeste 0 953.7 -1.8 45
2020-01-14 13:00:00 7.9 3 Noroeste 11 Noroeste 0 954.6 -0.3 47
2020-01-14 12:00:00 5 3 Nordeste 8 Nordeste 0 955.4 0.7 56
2020-01-14 11:00:00 4.1 0 Calma 5 Nordeste 0 955.5 1 59
2020-01-14 10:00:00 0.7 3 Este 20 Este 0 954.9 0.7 77
2020-01-14 09:00:00 -0.3 4 Nordeste 27 Este 0 954.7 0.8 77
2020-01-14 08:00:00 -0.4 10 Este 27 Este 0 954.5 0.5 80
2020-01-14 07:00:00 0.3 10 Este 23 Este 0 954.2 -0.3 78
2020-01-14 06:00:00 0 3 Este 10 Norte 0 953.9 -0.6 79
2020-01-14 05:00:00 0.5 0 Calma 7 Sudoeste 0 954 -0.7 81
2020-01-14 04:00:00 1.6 0 Calma 15 Este 0 954.5 -0.6 74
2020-01-14 03:00:00 1.3 2 Este 19 Este 0 954.5 -1 76
2020-01-14 02:00:00 3.1 3 Este 14 Norte 0 954.7 -0.8 71
2020-01-14 01:00:00 3.5 0 Calma 5 Sudoeste 0 955.1 0.1 71
2020-01-14 00:00:00 4.2 2 Sudoeste 7 Noroeste 0 955.5 0.3 66
2020-01-13 23:00:00 6.3 3 Oeste 9 Oeste 0 955.5 0.1 56
2020-01-13 22:00:00 6.1 0 Calma 8 Sudeste 0 955 0 56
2020-01-13 21:00:00 7.7 4 Sudeste 15 Oeste 0 955.2 0.5 47
2020-01-13 20:00:00 9.9 8 Oeste 16 Oeste 0 955.4 0.9 41
2020-01-13 19:00:00 10.8 6 Oeste 15 Oeste 0 955 0.3 37
2020-01-13 18:00:00 11.3 7 Sudoeste 17 Oeste 0 954.7 -0.6 36
2020-01-13 17:00:00 11.9 4 Oeste 10 Oeste 0 954.5 -1.5 34
2020-01-13 16:00:00 13.6 6 Oeste 11 Oeste 0 954.7 -2.4 29
2020-01-13 15:00:00 12.7 4 Noroeste 9 Noroeste 0 955.3 -2.6 27
2020-01-13 14:00:00 10.8 3 Nordeste 7 Sudeste 0 956 -2.2 37
2020-01-13 13:00:00 8.6 4 Nordeste 9 Norte 0 957.1 -0.7 47
2020-01-13 12:00:00 6.1 4 Nordeste 16 Sudeste 0 957.9 0.2 58
2020-01-13 11:00:00 4.7 7 Sudeste 17 Este 0 958.2 0.4 61
2020-01-13 10:00:00 1 5 Este 22 Este 0 957.8 0.4 81
2020-01-13 09:00:00 0.7 8 Este 22 Este 0 957.7 0.5 81
2020-01-13 08:00:00 1.5 7 Este 23 Este 0 957.8 0.2 77
2020-01-13 07:00:00 2.7 12 Sudeste 22 Sudeste 0 957.4 -0.8 73
2020-01-13 06:00:00 1.8 9 Este 25 Sudeste 0 957.2 -1.2 78
2020-01-13 05:00:00 2.1 8 Este 20 Este 0 957.6 -0.8 79
2020-01-13 04:00:00 3.3 13 Este 23 Sudeste 0 958.2 -0.9 77
2020-01-13 03:00:00 3.8 8 Este 21 Este 0 958.4 -1.1 72
2020-01-13 02:00:00 4.1 6 Nordeste -- -- -- 958.4 -1 71
2020-01-13 01:00:00 5.7 3 Este 16 Sudeste 0 959.1 0 71
2020-01-13 00:00:00 5.8 3 Nordeste 16 Norte 0 959.5 0.2 66
2020-01-12 23:00:00 6.1 3 Sudeste 7 Sudeste 0 959.4 0.3 68
2020-01-12 22:00:00 7.5 0 Calma 6 Oeste 0 959.1 0.8 59
2020-01-12 21:00:00 9.4 5 Oeste 11 Oeste 0 959.3 1.3 50
2020-01-12 20:00:00 10.5 7 Oeste 18 Oeste 0 959.1 1.3 45
2020-01-12 19:00:00 10.9 7 Oeste 15 Oeste 0 958.3 0.2 43
2020-01-12 18:00:00 11.1 5 Oeste 12 Oeste 0 958 -0.4 36
2020-01-12 17:00:00 11.5 5 Sudoeste 12 Oeste 0 957.8 -1.5 34
2020-01-12 16:00:00 12.3 4 Sudoeste 11 Noroeste 0 958.1 -2.1 31
2020-01-12 15:00:00 12.6 5 Noroeste 10 Noroeste 0 958.4 -2.8 31
2020-01-12 14:00:00 11 2 Nordeste 5 Nordeste 0 959.3 -2.4 43
2020-01-12 13:00:00 8.4 4 Nordeste 8 Este 0 960.2 -1.3 54
2020-01-12 12:00:00 6 5 Nordeste 25 Norte 0 961.2 -0.1 62
2020-01-12 11:00:00 3.8 6 Nordeste 16 Norte 0 961.7 0.7 71
2020-01-12 10:00:00 0.5 0 Calma 23 Este 0 961.5 0.9 85
2020-01-12 09:00:00 3 6 Este 21 Norte 0 961.3 0.6 82
2020-01-12 08:00:00 1.3 8 Nordeste 20 Norte 0 961 0.3 85
2020-01-12 07:00:00 2.4 8 Este 21 Este 0 960.6 -0.3 82
2020-01-12 06:00:00 2.5 4 Este 13 Sudeste 0 960.7 -0.1 84
2020-01-12 05:00:00 2.3 0 Calma 12 Norte 0 960.7 0.2 84
2020-01-12 04:00:00 3.5 3 Nordeste 17 Sudeste 0 960.9 0.3 81
2020-01-12 03:00:00 4.6 3 Este 13 Este 0 960.8 -0.1 76
2020-01-12 02:00:00 5.7 5 Este 14 Sudeste 0 960.5 -0.1 74
2020-01-12 01:00:00 5.2 0 Calma 7 Norte 0 960.6 0.3 78
2020-01-12 00:00:00 5.5 3 Sudeste 6 Este 0 960.9 1 75
2020-01-11 23:00:00 7.2 0 Calma 6 Sudoeste 0 960.6 1.1 67
2020-01-11 22:00:00 7.4 0 Calma 9 Oeste 0 960.3 1.3 65
2020-01-11 21:00:00 7.2 2 Oeste 9 Noroeste 0 959.9 1.3 61
2020-01-11 20:00:00 8.5 2 Oeste 10 Noroeste 0 959.5 1.1 48
2020-01-11 19:00:00 9.8 0 Calma 9 Oeste 0 959 1 43
2020-01-11 18:00:00 10.9 6 Sudoeste 10 Sudoeste 0 958.6 0.4 40
2020-01-11 17:00:00 10.6 6 Sudoeste 8 Sudoeste 0 958.4 -0.2 41
2020-01-11 16:00:00 12.7 0 Calma 11 Este 0 958 -1.5 35
2020-01-11 15:00:00 12.1 4 Este 15 Este 0 958.2 -2.2 37
2020-01-11 14:00:00 11.3 5 Este 16 Sudeste 0 958.6 -2.1 37
2020-01-11 13:00:00 10.2 6 Este 15 Este 0 959.5 -0.3 41
2020-01-11 12:00:00 7.5 7 Este 14 Este 0 960.4 1.3 50
2020-01-11 11:00:00 5.9 3 Nordeste 18 Sudeste 0 960.7 2 54
2020-01-11 10:00:00 3.1 0 Calma 11 Nordeste 0 959.8 1.4 67
2020-01-11 09:00:00 1.7 3 Este 11 Este 0 959.1 1.1 69
2020-01-11 08:00:00 1.6 0 Calma 11 Sudeste 0 958.7 0.7 69
2020-01-11 07:00:00 1.2 0 Calma 13 Sudeste 0 958.4 0.3 72
2020-01-11 06:00:00 1.7 3 Nordeste 13 Sudeste 0 958 0.1 70
2020-01-11 05:00:00 1.8 0 Calma 11 Este 0 958 0.3 74
2020-01-11 04:00:00 1.8 0 Calma 9 Este 0 958.1 0.3 72
2020-01-11 03:00:00 2.6 0 Calma 12 Sudeste 0 957.9 0.1 66
2020-01-11 02:00:00 4.7 6 Este 17 Sudeste 0 957.7 0.3 58
2020-01-11 01:00:00 4.5 3 Sudeste 13 Sudeste 0 957.8 0.6 58
2020-01-11 00:00:00 5.8 0 Calma 9 Sudoeste 0 957.8 1.3 52
2020-01-10 23:00:00 7 2 Sur 6 Sur 0 957.4 1.2 45
2020-01-10 22:00:00 7.9 4 Sur 9 Sudeste 0 957.2 1.4 43
2020-01-10 21:00:00 9.5 4 Sudeste 15 Norte 0 956.5 1.9 40
2020-01-10 20:00:00 9.7 2 Este 24 Nordeste 0 956.2 2.9 38
2020-01-10 19:00:00 10.5 7 Nordeste 25 Nordeste 0 955.8 2.2 38
2020-01-10 18:00:00 11.7 13 Nordeste 28 Nordeste 0 954.6 0.9 36
2020-01-10 17:00:00 12.4 4 Sudeste 12 Sudeste 0 953.3 -1.2 43
2020-01-10 16:00:00 13.5 5 Nordeste 13 Norte 0 953.6 -1.7 41
2020-01-10 15:00:00 14.3 2 Sudeste 6 Este 0 953.7 -2.7 40
2020-01-10 14:00:00 11 0 Calma 5 Nordeste 0 954.5 -2.4 52
2020-01-10 13:00:00 9.4 2 Noroeste 10 Nordeste 0 955.3 -1.2 61
2020-01-10 12:00:00 6.9 4 Nordeste 13 Norte 0 956.4 0.3 66
2020-01-10 11:00:00 5.8 4 Nordeste 13 Este 0 956.9 1.2 71
2020-01-10 10:00:00 5.1 4 Nordeste 12 Nordeste 0 956.5 0.4 78
2020-01-10 09:00:00 4 0 Calma 9 Nordeste 0 956.1 0.3 84
2020-01-10 08:00:00 4.6 0 Calma 6 Norte 0 955.7 -0.4 84
2020-01-10 07:00:00 4.2 2 Noroeste 8 Este 0 956.1 -0.1 84
2020-01-10 06:00:00 4.1 0 Calma 6 Noroeste 0 955.8 -0.6 85
2020-01-10 05:00:00 3.6 0 Calma 5 Sur 0 956.1 -0.6 85
2020-01-10 04:00:00 4.9 0 Calma 7 Sudeste 0 956.2 -0.6 84
2020-01-10 03:00:00 5.4 3 Sur 11 Noroeste 0 956.4 -1 84
2020-01-10 02:00:00 5.7 6 Noroeste 15 Noroeste 0 956.7 -0.3 79
2020-01-10 01:00:00 9.1 8 Oeste 24 Oeste 0 956.8 0.6 63
2020-01-10 00:00:00 8.3 7 Oeste 27 Oeste 0 957.4 0.3 70
2020-01-09 23:00:00 8 12 Noroeste 20 Noroeste 0 957 -0.3 66
2020-01-09 22:00:00 7.7 2 Sudoeste 11 Oeste 0 956.2 -0.5 65
2020-01-09 21:00:00 8.5 0 Calma 19 Oeste 0 957.1 0.9 62
2020-01-09 20:00:00 11.1 9 Oeste 20 Oeste 0 957.3 1.1 51
2020-01-09 19:00:00 11.6 9 Oeste 20 Oeste 0 956.7 0.8 49
2020-01-09 18:00:00 11.8 6 Oeste 13 Noroeste 0 956.2 0 47
2020-01-09 17:00:00 12.6 4 Oeste 13 Oeste 0 956.2 -0.7 45
2020-01-09 16:00:00 14.2 4 Oeste 13 Noroeste 0 955.9 -2.1 42
2020-01-09 15:00:00 13.3 8 Noroeste 13 Noroeste 0 956.2 -2.7 44
2020-01-09 14:00:00 13.1 0 Calma 6 Sudoeste 0 956.9 -2.2 43
2020-01-09 13:00:00 9.7 2 Nordeste 7 Nordeste 0 958 -0.7 54
2020-01-09 12:00:00 7.7 3 Nordeste 8 Este 0 958.9 0.6 60
2020-01-09 11:00:00 6.4 3 Sudeste 7 Este 0 959.1 1.2 63
2020-01-09 10:00:00 4.1 4 Sudeste 9 Sudeste 0 958.7 0.9 77
2020-01-09 09:00:00 3.2 4 Este 13 Este 0 958.3 0.5 78
2020-01-09 08:00:00 3.8 4 Este 19 Este 0 957.9 -0.2 77
2020-01-09 07:00:00 3.5 3 Este 19 Norte 0 957.8 -0.4 75
2020-01-09 06:00:00 4.2 2 Este 14 Sudeste 0 957.8 -0.6 72
2020-01-09 05:00:00 5.5 3 Sudeste 11 Sudeste 0 958.1 -0.3 66
2020-01-09 04:00:00 5.5 0 Calma 12 Norte 0 958.2 -0.3 67
2020-01-09 03:00:00 6.1 0 Calma 11 Este 0 958.4 -0.2 62
2020-01-09 02:00:00 7.6 5 Sudeste 15 Este 0 958.4 0.2 56
2020-01-09 01:00:00 8.8 8 Sudeste 17 Sudeste 0 958.5 0.2 50
2020-01-09 00:00:00 8.4 4 Este 13 Este 0 958.6 0.6 49
2020-01-08 23:00:00 9.6 4 Sudeste 13 Este 0 958.2 0.5 44
2020-01-08 22:00:00 9.4 0 Calma 6 Este 0 958.3 0.8 43
2020-01-08 21:00:00 10.4 2 Sur 5 Sur 0 958 0.7 37
2020-01-08 20:00:00 11.9 3 Sudoeste 9 Sudoeste 0 957.7 0.8 33
2020-01-08 19:00:00 12.6 7 Sudoeste 11 Oeste 0 957.5 0.6 32
2020-01-08 18:00:00 13.9 6 Sudoeste 11 Oeste 0 957.3 0.2 28
2020-01-08 17:00:00 13.9 5 Sudoeste 10 Sudoeste 0 956.9 -1 29
2020-01-08 16:00:00 14.8 0 Calma 5 Sur 0 956.9 -1.7 26
2020-01-08 15:00:00 16.5 0 Calma 6 Nordeste 0 957.1 -2.2 27
2020-01-08 14:00:00 12.9 2 Nordeste 7 Sudeste 0 957.9 -2.2 30
2020-01-08 13:00:00 12 4 Sudeste 26 Este 0 958.6 -1 34
2020-01-08 12:00:00 7.2 9 Este 22 Este 0 959.3 -0.1 51
2020-01-08 11:00:00 5.2 9 Este 21 Este 0 960.1 0.9 55
2020-01-08 10:00:00 3.1 4 Nordeste 17 Norte 0 959.6 0.6 66
2020-01-08 09:00:00 2.1 4 Nordeste 18 Este 0 959.4 0.2 72
2020-01-08 08:00:00 1.7 0 Calma 9 Nordeste 0 959.2 0.3 76
2020-01-08 07:00:00 2.2 0 Calma 8 Sudoeste 0 959 -0.3 74
2020-01-08 06:00:00 3.5 3 Nordeste 17 Norte 0 959.2 -0.1 63
2020-01-08 05:00:00 4.4 7 Este 18 Este 0.1 958.9 -0.6 62
2020-01-08 04:00:00 4.7 2 Este 16 Norte 0 959.3 -0.5 59
2020-01-08 03:00:00 6.3 5 Este 20 Sudeste 0 959.3 -0.7 55
2020-01-08 02:00:00 6.7 4 Este 15 Este 0 959.5 -0.6 51
2020-01-08 01:00:00 6.7 0 Calma 17 Este 0 959.8 -0.4 49
2020-01-08 00:00:00 7 0 Calma 8 Sudeste 0 960 -0.1 51
2020-01-07 23:00:00 7.9 0 Calma 6 Este 0 960.1 0.3 46
2020-01-07 22:00:00 9.1 0 Calma 6 Noroeste 0 960.2 0.8 38
2020-01-07 21:00:00 11.5 0 Calma 10 Noroeste 0 960.1 0.9 32
2020-01-07 20:00:00 12.5 7 Noroeste 13 Noroeste 0 959.8 1 30
2020-01-07 19:00:00 14.1 6 Oeste 14 Oeste 0 959.4 0.4 26
2020-01-07 18:00:00 14.3 5 Oeste 19 Oeste 0 959.2 -0.1 27
2020-01-07 17:00:00 15.7 8 Oeste 14 Oeste 0 958.8 -0.9 27
2020-01-07 16:00:00 14.5 6 Sudoeste 8 Sudoeste 0 959 -1.5 32
2020-01-07 15:00:00 15.3 0 Calma 9 Este 0 959.3 -2 27
2020-01-07 14:00:00 14 2 Sudeste 8 Norte 0 959.7 -1.8 34
2020-01-07 13:00:00 10.7 4 Este 15 Norte 0 960.5 -0.9 41
2020-01-07 12:00:00 8.1 4 Nordeste 20 Sudeste 0 961.3 0.5 45
2020-01-07 11:00:00 4.6 7 Nordeste 25 Este 0 961.5 0.7 65
2020-01-07 10:00:00 2.4 5 Nordeste 30 Este 0.1 961.4 0.7 74
2020-01-07 09:00:00 4.4 14 Este 29 Sudeste 0 960.8 0.4 67
2020-01-07 08:00:00 2.9 6 Nordeste 28 Este 0 960.8 0.5 73
2020-01-07 07:00:00 4.3 7 Este 21 Este 0 960.7 0.6 65
2020-01-07 06:00:00 3.2 8 Nordeste 26 Sudeste 0 960.4 0.5 70
2020-01-07 05:00:00 4.4 8 Nordeste 17 Norte 0 960.3 0.3 71
2020-01-07 04:00:00 4.4 8 Nordeste 23 Este 0 960.1 -0.2 69
2020-01-07 03:00:00 5.7 9 Sudeste 26 Este 0 959.9 -0.2 62
2020-01-07 02:00:00 5.6 4 Este 15 Sudeste 0 960 0.2 63
2020-01-07 01:00:00 6.6 8 Sudeste 21 Este 0 960.3 0.6 60
2020-01-07 00:00:00 7 6 Este 26 Este 0 960.1 0.9 61
2020-01-06 23:00:00 8.2 9 Este 20 Sudeste 0 959.8 0.8 60
2020-01-06 22:00:00 7.8 3 Sudeste 11 Sudoeste 0 959.7 1.4 56
2020-01-06 21:00:00 10 5 Oeste 9 Oeste 0 959.2 1.6 47
2020-01-06 20:00:00 11 6 Oeste 13 Oeste 0 959 1.9 43
2020-01-06 19:00:00 11.9 7 Oeste 14 Oeste 0 958.3 0.9 40
2020-01-06 18:00:00 12.2 5 Oeste 12 Oeste 0 957.6 0 37
2020-01-06 17:00:00 11.6 6 Sudoeste 10 Oeste 0 957.1 -1.2 38
2020-01-06 16:00:00 13.8 4 Oeste 11 Oeste 0 957.4 -1.5 35
2020-01-06 15:00:00 14.9 0 Calma 6 Noroeste 0 957.6 -1.8 36
2020-01-06 14:00:00 14.2 0 Calma 8 Nordeste 0 958.3 -1.6 36
2020-01-06 13:00:00 9.4 2 Nordeste 10 Nordeste 0 958.9 -0.8 47
2020-01-06 12:00:00 7.7 3 Nordeste 12 Nordeste 0 959.4 0.5 52
2020-01-06 11:00:00 6.1 4 Este 13 Este 0 959.9 1.8 62
2020-01-06 10:00:00 2 0 Calma 17 Este 0 959.7 1.6 81